Time;durP1;ratioP1;P1;durP2;ratioP2;P2;SDS_P1;SDS_P2;PMS_P1;PMS_P2;Temp;Humidity;BMP_temperature;BMP_pressure;BME280_temperature;BME280_humidity;BME280_pressure;Samples;Min_cycle;Max_cycle;Signal;HPM_P1;HPM_P2
2022/05/20 00:00:33;;;;;;;38.05;31.38;;;;;;;11.68;100.00;102052.63;5148026;27;20074;-63
2022/05/20 00:02:58;;;;;;;36.15;29.95;;;;;;;11.62;100.00;102052.47;5144116;27;20469;-63
2022/05/20 00:05:24;;;;;;;37.50;31.13;;;;;;;11.58;100.00;102045.34;5147321;27;20023;-63
2022/05/20 00:07:50;;;;;;;35.78;29.75;;;;;;;11.48;100.00;102047.81;5145162;27;20071;-64
2022/05/20 00:10:17;;;;;;;36.30;29.70;;;;;;;11.43;100.00;102045.91;5146301;27;20019;-65
2022/05/20 00:12:44;;;;;;;39.17;33.35;;;;;;;11.48;100.00;102045.16;5146280;27;20034;-65
2022/05/20 00:15:14;;;;;;;37.00;30.88;;;;;;;11.48;100.00;102044.28;5145357;27;20035;-68
2022/05/20 00:17:39;;;;;;;36.53;30.77;;;;;;;11.49;100.00;102036.34;5146276;27;20094;-66
2022/05/20 00:20:05;;;;;;;37.13;30.75;;;;;;;11.45;100.00;102039.81;5144404;27;20419;-65
2022/05/20 00:22:31;;;;;;;34.33;28.77;;;;;;;11.45;100.00;102044.22;5147543;27;20440;-65
2022/05/20 00:27:40;;;;;;;34.15;28.27;;;;;;;11.31;100.00;102042.19;5143048;27;20078;-67
2022/05/20 00:30:06;;;;;;;33.60;27.23;;;;;;;11.32;100.00;102036.00;5146680;27;20046;-65
2022/05/20 00:32:32;;;;;;;33.03;26.42;;;;;;;11.29;100.00;102032.44;5124932;27;20046;-65
2022/05/20 00:34:57;;;;;;;34.28;26.80;;;;;;;11.28;100.00;102033.28;5147300;27;20022;-66
2022/05/20 00:37:22;;;;;;;34.40;27.50;;;;;;;11.22;100.00;102025.22;5144425;27;20027;-64
2022/05/20 00:39:48;;;;;;;34.63;27.63;;;;;;;11.11;100.00;102030.28;5146103;27;20024;-65
2022/05/20 00:42:16;;;;;;;33.83;27.48;;;;;;;11.05;100.00;102030.16;5145189;27;20135;-66
2022/05/20 00:44:42;;;;;;;35.38;28.17;;;;;;;11.07;100.00;102031.09;5144747;27;20123;-67
2022/05/20 00:47:08;;;;;;;36.45;29.50;;;;;;;11.03;100.00;102026.59;5146393;27;20027;-66
2022/05/20 00:49:35;;;;;;;34.95;28.42;;;;;;;11.08;100.00;102028.47;5143648;27;20023;-64
2022/05/20 00:52:02;;;;;;;33.88;26.90;;;;;;;11.06;100.00;102024.88;5146767;27;20529;-65
2022/05/20 00:54:33;;;;;;;33.28;26.08;;;;;;;11.05;100.00;102027.50;5139709;27;20019;-63
2022/05/20 00:57:17;;;;;;;36.03;28.90;;;;;;;10.96;100.00;102021.16;5139224;27;20023;-63
2022/05/20 00:59:48;;;;;;;35.03;28.80;;;;;;;10.90;100.00;102023.66;5142893;27;20027;-63
2022/05/20 01:02:20;;;;;;;33.00;26.08;;;;;;;10.94;100.00;102027.28;5145245;27;20029;-62
2022/05/20 01:04:46;;;;;;;31.67;24.97;;;;;;;10.94;100.00;102019.34;5145023;27;20031;-63
2022/05/20 01:07:13;;;;;;;30.67;24.20;;;;;;;10.94;100.00;102022.88;5144941;27;20272;-63
2022/05/20 01:09:39;;;;;;;104.68;30.35;;;;;;;10.90;100.00;102017.50;5144131;27;20034;-63
2022/05/20 01:12:05;;;;;;;34.28;27.05;;;;;;;10.88;100.00;102019.19;5146145;27;20023;-63
2022/05/20 01:14:31;;;;;;;35.17;28.88;;;;;;;10.86;100.00;102026.22;5142807;27;20489;-64
2022/05/20 01:16:56;;;;;;;32.88;26.20;;;;;;;10.73;100.00;102027.69;5145763;27;20043;-62
2022/05/20 01:19:43;;;;;;;34.25;28.30;;;;;;;10.79;100.00;102036.66;5143792;27;20060;-62
2022/05/20 01:22:12;;;;;;;33.63;26.35;;;;;;;10.77;100.00;102035.72;5141772;27;20042;-64
2022/05/20 01:24:37;;;;;;;32.65;25.88;;;;;;;10.73;100.00;102031.25;5145545;27;20022;-64
2022/05/20 01:27:03;;;;;;;34.63;27.30;;;;;;;10.74;100.00;102021.56;5142751;27;20015;-64
2022/05/20 01:29:29;;;;;;;35.53;28.33;;;;;;;10.71;100.00;102027.66;5146354;27;20076;-63
2022/05/20 01:31:54;;;;;;;36.53;30.25;;;;;;;10.70;100.00;102023.22;5142686;27;20055;-62
2022/05/20 01:34:20;;;;;;;33.13;25.23;;;;;;;10.68;100.00;102011.72;5145082;27;20051;-64
2022/05/20 01:36:46;;;;;;;33.95;26.77;;;;;;;10.66;100.00;102008.16;5144427;27;20102;-63
2022/05/20 01:39:11;;;;;;;33.60;26.58;;;;;;;10.62;100.00;102011.59;5143773;27;20043;-65
2022/05/20 01:42:04;;;;;;;36.03;29.42;;;;;;;10.62;100.00;102009.84;5145250;27;20079;-62
2022/05/20 01:44:39;;;;;;;36.03;29.08;;;;;;;10.63;100.00;102008.97;5138409;27;20119;-64
2022/05/20 01:47:24;;;;;;;35.25;30.38;;;;;;;10.61;100.00;102001.88;5139764;27;20058;-62
2022/05/20 01:50:03;;;;;;;40.33;31.60;;;;;;;10.53;100.00;101995.50;5143715;27;20433;-65
2022/05/20 01:52:43;;;;;;;35.00;29.45;;;;;;;10.51;100.00;101992.81;5138199;27;20030;-65
2022/05/20 01:55:36;;;;;;;36.65;31.08;;;;;;;10.55;100.00;101988.50;5140524;27;20481;-62
2022/05/20 01:58:10;;;;;;;38.88;33.38;;;;;;;10.56;100.00;101995.59;5138526;27;20019;-64
2022/05/20 02:00:39;;;;;;;37.70;32.10;;;;;;;10.54;100.00;101992.91;5139832;27;20034;-62
2022/05/20 02:03:19;;;;;;;37.65;32.25;;;;;;;10.52;100.00;101993.75;5145438;27;20026;-62
2022/05/20 02:05:54;;;;;;;35.90;31.25;;;;;;;10.42;100.00;101993.50;5144138;27;20031;-67
2022/05/20 02:08:22;;;;;;;34.20;28.27;;;;;;;10.32;100.00;101991.47;5143148;27;20034;-64
2022/05/20 02:10:50;;;;;;;33.67;27.13;;;;;;;10.26;100.00;101989.56;5144504;27;20420;-62
2022/05/20 02:13:17;;;;;;;35.33;29.02;;;;;;;10.21;100.00;101982.41;5143741;27;20018;-62
2022/05/20 02:15:49;;;;;;;38.03;30.80;;;;;;;10.09;100.00;101983.91;5143925;27;20089;-63
2022/05/20 02:18:29;;;;;;;37.38;31.85;;;;;;;10.10;100.00;101979.50;5143475;27;20089;-68
2022/05/20 02:21:01;;;;;;;38.60;31.88;;;;;;;10.12;100.00;101981.34;5145452;27;20369;-65
2022/05/20 02:23:35;;;;;;;38.35;33.08;;;;;;;10.19;100.00;101989.41;5142481;27;20019;-62
2022/05/20 02:26:06;;;;;;;40.95;34.70;;;;;;;10.23;100.00;101993.91;5138262;27;20026;-62
2022/05/20 02:28:39;;;;;;;44.10;37.53;;;;;;;10.24;100.00;101993.06;5142469;27;20019;-64
2022/05/20 02:31:10;;;;;;;46.85;39.22;;;;;;;10.26;100.00;101980.75;5143466;27;20378;-63
2022/05/20 02:33:35;;;;;;;42.95;35.65;;;;;;;10.21;100.00;101982.41;5149367;27;20019;-66
2022/05/20 02:36:05;;;;;;;35.15;29.73;;;;;;;10.03;100.00;101977.56;5146098;27;20069;-66
2022/05/20 02:38:30;;;;;;;36.40;29.88;;;;;;;10.01;100.00;101987.22;5142093;27;20443;-65
2022/05/20 02:40:55;;;;;;;41.10;30.52;;;;;;;9.97;100.00;101994.16;5149679;27;20105;-65
2022/05/20 02:43:22;;;;;;;117.20;38.50;;;;;;;9.96;100.00;101992.38;5146602;27;20532;-66
2022/05/20 02:45:49;;;;;;;204.88;39.85;;;;;;;9.89;100.00;101995.72;5147928;27;20066;-66
2022/05/20 02:48:19;;;;;;;58.08;37.65;;;;;;;10.02;100.00;101983.69;5148089;27;20018;-67
2022/05/20 02:50:45;;;;;;;69.30;41.55;;;;;;;10.06;100.00;101978.56;5147414;27;20027;-64
2022/05/20 02:53:11;;;;;;;64.53;41.78;;;;;;;10.03;100.00;101983.75;5148212;27;20025;-65
2022/05/20 02:55:36;;;;;;;66.43;38.65;;;;;;;10.02;100.00;101983.69;5146256;27;20473;-66
2022/05/20 02:58:02;;;;;;;93.97;42.85;;;;;;;10.05;100.00;101984.69;5149045;27;20054;-65
2022/05/20 03:05:56;;;;;;;79.85;41.22;;;;;;;10.02;100.00;101975.75;5145968;27;20046;-64
2022/05/20 03:08:22;;;;;;;72.25;39.42;;;;;;;9.95;100.00;101974.75;5148248;27;20492;-65
2022/05/20 03:10:48;;;;;;;46.42;38.13;;;;;;;9.98;100.00;101969.53;5146687;27;20093;-66
2022/05/20 03:13:14;;;;;;;74.65;40.42;;;;;;;9.87;100.00;101964.00;5146926;27;20381;-66
2022/05/20 03:15:40;;;;;;;72.88;40.50;;;;;;;9.84;100.00;101971.81;5148362;27;20026;-68
2022/05/20 03:18:09;;;;;;;54.30;41.03;;;;;;;9.88;100.00;101970.16;5145332;27;20046;-66
2022/05/20 03:20:35;;;;;;;50.17;40.75;;;;;;;9.83;100.00;101977.06;5148508;27;20481;-66
2022/05/20 03:23:00;;;;;;;43.15;37.22;;;;;;;9.80;100.00;101969.97;5145298;27;20094;-64
2022/05/20 03:25:26;;;;;;;49.22;38.75;;;;;;;9.89;100.00;101974.59;5148057;27;20042;-63
2022/05/20 03:27:51;;;;;;;44.75;39.95;;;;;;;9.84;100.00;101970.94;5146140;27;20026;-62
2022/05/20 03:30:17;;;;;;;43.13;38.47;;;;;;;9.83;100.00;101966.50;5147361;27;20019;-62
2022/05/20 03:32:43;;;;;;;41.88;37.38;;;;;;;9.83;100.00;101963.84;5147073;27;20023;-62
2022/05/20 03:35:09;;;;;;;39.50;35.17;;;;;;;9.75;100.00;101961.91;5145638;27;20025;-62
2022/05/20 03:37:35;;;;;;;39.30;34.88;;;;;;;9.77;100.00;101965.50;5148454;27;20022;-64
2022/05/20 03:40:00;;;;;;;40.72;35.58;;;;;;;9.77;100.00;101962.84;5144258;27;20403;-64
2022/05/20 03:42:26;;;;;;;39.60;35.20;;;;;;;9.81;100.00;101970.84;5148383;27;20022;-65
2022/05/20 03:44:52;;;;;;;41.17;35.75;;;;;;;9.88;100.00;101968.41;5145451;27;20034;-65
2022/05/20 03:47:19;;;;;;;41.72;35.47;;;;;;;9.95;100.00;101975.63;5146676;27;20019;-63
2022/05/20 03:49:45;;;;;;;42.42;36.45;;;;;;;10.08;100.00;101960.09;5146976;27;20380;-65
2022/05/20 03:52:11;;;;;;;40.75;34.75;;;;;;;10.15;100.00;101958.47;5145834;27;20064;-65
2022/05/20 03:54:37;;;;;;;39.05;34.72;;;;;;;10.26;100.00;101949.06;5147809;27;20084;-62
2022/05/20 03:57:04;;;;;;;44.65;38.58;;;;;;;10.34;100.00;101958.09;5144515;27;20027;-65
2022/05/20 03:59:33;;;;;;;49.28;40.67;;;;;;;10.40;100.00;101950.28;5140479;27;20031;-64
2022/05/20 04:01:59;;;;;;;50.67;41.63;;;;;;;10.43;100.00;101946.84;5140101;27;20061;-66
2022/05/20 04:04:32;;;;;;;49.80;42.40;;;;;;;10.40;100.00;101930.91;5147556;27;20117;-64
2022/05/20 04:06:59;;;;;;;52.40;41.80;;;;;;;10.29;100.00;101927.97;5144524;27;20064;-63
2022/05/20 04:09:24;;;;;;;51.08;40.97;;;;;;;10.25;100.00;101928.75;5147406;27;20114;-61
2022/05/20 04:11:57;;;;;;;44.17;37.90;;;;;;;10.17;100.00;101933.88;5145705;27;20057;-66
2022/05/20 04:14:23;;;;;;;;;;;;;;;10.18;100.00;101924.19;5147439;27;20418;-63
2022/05/20 04:16:55;;;;;;;44.20;36.45;;;;;;;10.06;100.00;101933.63;5145603;27;19911;-64
2022/05/20 04:19:20;;;;;;;45.92;39.88;;;;;;;10.04;100.00;101922.13;5146348;27;20027;-62
2022/05/20 04:21:45;;;;;;;44.72;38.53;;;;;;;10.02;100.00;101918.56;5146003;27;20117;-64
2022/05/20 04:24:11;;;;;;;53.53;40.85;;;;;;;10.02;100.00;101921.22;5144926;27;20023;-63
2022/05/20 04:26:36;;;;;;;50.83;41.88;;;;;;;10.18;100.00;101921.53;5147294;27;20534;-62
2022/05/20 04:29:02;;;;;;;87.38;42.50;;;;;;;10.24;100.00;101919.06;5144264;27;20462;-64
2022/05/20 04:31:27;;;;;;;139.35;44.20;;;;;;;10.24;100.00;101919.94;5146952;27;20465;-63
2022/05/20 04:33:52;;;;;;;127.15;44.83;;;;;;;10.29;100.00;101935.91;5144792;27;20087;-63
2022/05/20 04:36:18;;;;;;;89.75;49.20;;;;;;;10.34;100.00;101926.38;5146117;27;20407;-63
2022/05/20 04:38:44;;;;;;;77.75;45.63;;;;;;;10.41;100.00;101924.75;5145655;27;20445;-64
2022/05/20 04:49:20;;;;;;;93.88;45.22;;;;;;;10.65;100.00;101932.31;5144772;27;20069;-63
2022/05/20 04:51:46;;;;;;;76.70;45.75;;;;;;;10.78;100.00;101941.41;5144559;27;20482;-64
2022/05/20 04:56:55;;;;;;;65.63;42.25;;;;;;;10.99;100.00;101952.44;5146497;27;20149;-64
2022/05/20 04:59:21;;;;;;;58.75;44.67;;;;;;;11.16;100.00;101955.41;5144562;27;20077;-63
2022/05/20 05:01:48;;;;;;;60.13;43.53;;;;;;;11.28;100.00;101956.50;5144828;27;20055;-63
2022/05/20 05:04:15;;;;;;;55.22;43.53;;;;;;;11.41;100.00;101963.81;5144986;27;20035;-63
2022/05/20 05:06:40;;;;;;;50.35;43.13;;;;;;;11.63;100.00;101943.03;5144084;27;20118;-67
2022/05/20 05:09:05;;;;;;;50.75;43.13;;;;;;;11.77;100.00;101952.09;5146388;27;20054;-67
2022/05/20 05:11:31;;;;;;;56.60;42.97;;;;;;;11.83;100.00;101941.59;5143127;27;20102;-68
2022/05/20 05:13:57;;;;;;;50.80;43.53;;;;;;;11.89;100.00;101943.47;5146350;27;20018;-64
2022/05/20 05:16:22;;;;;;;47.45;42.13;;;;;;;11.96;100.00;101941.84;5144348;27;20023;-63
2022/05/20 05:18:47;;;;;;;47.08;41.92;;;;;;;11.99;100.00;101942.78;5144480;27;20039;-64
2022/05/20 05:21:15;;;;;;;47.88;40.67;;;;;;;12.10;100.00;101953.56;5145335;27;20019;-64
2022/05/20 05:23:41;;;;;;;48.10;40.75;;;;;;;12.16;100.00;101952.78;5143708;27;20019;-66
2022/05/20 05:26:07;;;;;;;47.30;41.78;;;;;;;12.19;100.00;101950.16;5146067;27;20067;-64
2022/05/20 05:28:32;;;;;;;48.30;41.67;;;;;;;12.15;100.00;101946.56;5142883;27;20023;-62
2022/05/20 05:30:58;;;;;;;47.72;42.53;;;;;;;12.31;100.00;101957.41;5146205;27;20015;-64
2022/05/20 05:33:24;;;;;;;48.60;43.00;;;;;;;12.44;100.00;101946.09;5143292;27;20458;-66
2022/05/20 05:35:50;;;;;;;50.17;43.78;;;;;;;12.47;100.00;101940.84;5144892;27;20043;-66
2022/05/20 05:38:15;;;;;;;47.65;42.45;;;;;;;12.37;100.00;101923.91;5144606;27;20045;-67
2022/05/20 05:40:40;;;;;;;49.42;43.78;;;;;;;12.34;100.00;101922.97;5143495;27;20072;-66
2022/05/20 05:43:06;;;;;;;50.83;45.38;;;;;;;12.35;100.00;101916.81;5146115;27;20102;-65
2022/05/20 05:45:34;;;;;;;50.70;45.20;;;;;;;12.52;100.00;101917.03;5141394;27;20034;-68
2022/05/20 05:48:03;;;;;;;51.97;46.35;;;;;;;12.81;100.00;101920.06;5139755;27;20058;-68
2022/05/20 05:50:30;;;;;;;51.25;45.75;;;;;;;13.01;100.00;101906.16;5137152;27;20011;-69
2022/05/20 05:53:06;;;;;;;48.63;42.90;;;;;;;13.06;100.00;101920.34;5119024;27;20024;-70
2022/05/20 05:55:31;;;;;;;48.90;43.70;;;;;;;13.07;100.00;101911.50;5139388;27;20042;-66
2022/05/20 05:57:56;;;;;;;47.05;41.97;;;;;;;13.18;100.00;101901.91;5139377;27;20015;-68
2022/05/20 06:00:22;;;;;;;46.70;41.58;;;;;;;13.36;100.00;101900.34;5117319;27;20031;-72
2022/05/20 06:02:48;;;;;;;48.17;42.13;;;;;;;13.44;100.00;101914.59;5136394;27;20019;-70
2022/05/20 06:05:13;;;;;;;45.70;40.70;;;;;;;13.38;100.00;101911.84;5137025;27;20034;-68
2022/05/20 06:07:39;;;;;;;45.30;40.40;;;;;;;13.32;100.00;101920.63;5135753;27;20033;-65
2022/05/20 06:10:04;;;;;;;46.05;40.53;;;;;;;13.31;100.00;101910.88;5137871;27;20031;-68
2022/05/20 06:12:31;;;;;;;47.25;41.47;;;;;;;13.31;100.00;101909.97;5135433;27;20023;-64
2022/05/20 06:14:57;;;;;;;45.90;40.90;;;;;;;13.34;100.00;101907.34;5141906;27;20027;-65
2022/05/20 06:17:22;;;;;;;47.20;41.45;;;;;;;13.36;100.00;101914.50;5139261;27;20043;-64
2022/05/20 06:19:47;;;;;;;47.08;39.38;;;;;;;13.41;100.00;101914.53;5138163;27;20042;-64
2022/05/20 06:22:13;;;;;;;44.92;39.65;;;;;;;13.49;100.00;101904.88;5134770;27;20062;-64
2022/05/20 06:24:38;;;;;;;45.83;39.85;;;;;;;13.55;100.00;101912.91;5141384;27;20058;-64
2022/05/20 06:27:04;;;;;;;43.92;38.75;;;;;;;13.69;100.00;101906.81;5137891;27;20043;-65
2022/05/20 06:29:30;;;;;;;45.72;39.42;;;;;;;13.82;100.00;101903.41;5136820;27;20549;-64
2022/05/20 06:31:55;;;;;;;43.63;38.70;;;;;;;13.89;100.00;101896.34;5137025;27;20072;-65
2022/05/20 06:34:21;;;;;;;41.50;35.17;;;;;;;13.97;100.00;101902.63;5136168;27;20102;-69
2022/05/20 06:39:50;;;;;;;38.70;32.90;;;;;;;14.32;100.00;101890.44;5053212;28;20539;-68
2022/05/20 06:42:16;;;;;;;39.22;31.63;;;;;;;14.58;100.00;101886.13;5051010;28;20037;-69
2022/05/20 06:44:41;;;;;;;35.42;28.67;;;;;;;14.76;100.00;101873.78;5054204;28;20503;-71
2022/05/20 06:47:07;;;;;;;36.05;29.25;;;;;;;14.79;100.00;101874.72;5052157;28;20031;-69
2022/05/20 06:49:33;;;;;;;36.53;29.13;;;;;;;14.76;100.00;101873.78;5050883;28;20020;-67
2022/05/20 06:52:00;;;;;;;34.05;26.42;;;;;;;14.78;100.00;101872.00;5049746;28;20472;-71
2022/05/20 06:54:27;;;;;;;35.38;26.63;;;;;;;14.95;100.00;101880.06;5050924;28;20494;-69
2022/05/20 06:56:52;;;;;;;35.95;25.63;;;;;;;15.14;100.00;101879.22;5053851;28;20120;-71
2022/05/20 06:59:18;;;;;;;33.17;26.15;;;;;;;15.39;100.00;101873.03;5051400;28;20120;-67
2022/05/20 07:01:43;;;;;;;33.55;25.13;;;;;;;15.55;100.00;101866.81;5051009;28;20025;-67
2022/05/20 07:04:08;;;;;;;34.20;25.35;;;;;;;15.77;100.00;101872.13;5048561;28;20037;-68
2022/05/20 07:06:34;;;;;;;32.20;24.77;;;;;;;15.86;100.00;101865.06;5051377;28;20093;-69
2022/05/20 07:09:00;;;;;;;33.53;25.08;;;;;;;15.89;100.00;101856.16;5051690;28;20037;-69
2022/05/20 07:11:26;;;;;;;30.58;22.50;;;;;;;15.98;100.00;101856.13;5125310;27;20096;-69
2022/05/20 07:13:58;;;;;;;32.15;23.92;;;;;;;16.21;100.00;101847.22;5135903;27;20023;-69
2022/05/20 07:16:29;;;;;;;30.27;21.38;;;;;;;16.51;100.00;101845.28;5137468;27;20023;-69
2022/05/20 07:18:55;;;;;;;30.20;19.88;;;;;;;16.60;100.00;101839.94;5137344;27;20142;-67
2022/05/20 07:21:20;;;;;;;30.05;19.90;;;;;;;16.77;100.00;101836.28;5142651;27;20513;-63
2022/05/20 07:23:46;;;;;;;27.05;18.40;;;;;;;16.81;100.00;101838.03;5144417;27;20100;-65
2022/05/20 07:26:13;;;;;;;29.75;19.80;;;;;;;16.83;100.00;101831.78;5138969;27;20039;-65
2022/05/20 07:28:39;;;;;;;28.85;19.05;;;;;;;17.00;100.00;101834.38;5142458;27;20526;-63
2022/05/20 07:31:06;;;;;;;27.73;19.23;;;;;;;17.20;100.00;101831.56;5147629;27;20098;-63
2022/05/20 07:33:32;;;;;;;27.88;19.08;;;;;;;17.50;100.00;101823.31;5146051;27;20378;-63
2022/05/20 07:35:57;;;;;;;27.55;17.95;;;;;;;17.71;100.00;101828.47;5146929;27;20106;-65
2022/05/20 07:38:23;;;;;;;28.63;19.20;;;;;;;17.75;100.00;101832.88;5147312;27;20422;-63
2022/05/20 07:40:50;;;;;;;24.02;13.65;;;;;;;17.75;100.00;101830.22;5145017;27;20110;-66
2022/05/20 07:43:16;;;;;;;23.48;11.43;;;;;;;17.81;100.00;101833.69;5148535;27;20445;-67
2022/05/20 07:45:42;;;;;;;22.48;11.63;;;;;;;18.07;100.00;101821.00;5140092;27;20113;-63
2022/05/20 07:48:08;;;;;;;21.23;10.88;;;;;;;18.32;100.00;101809.09;5147844;27;20079;-66
2022/05/20 07:50:42;;;;;;;22.17;11.77;;;;;;;18.63;100.00;101799.75;5146080;27;20398;-64
2022/05/20 07:53:20;;;;;;;22.33;11.07;;;;;;;18.74;100.00;101788.88;5147560;27;20023;-63
2022/05/20 07:55:51;;;;;;;22.35;11.07;;;;;;;18.90;100.00;101794.94;5140796;27;20072;-63
2022/05/20 07:58:19;;;;;;;22.67;11.00;;;;;;;19.05;100.00;101796.47;5142663;27;20060;-64
2022/05/20 08:00:45;;;;;;;22.02;11.15;;;;;;;19.13;100.00;101794.56;5146689;27;20022;-65
2022/05/20 08:03:14;;;;;;;22.25;11.10;;;;;;;19.12;100.00;101790.13;5144478;27;20028;-65
2022/05/20 08:05:39;;;;;;;22.15;11.32;;;;;;;18.98;100.00;101784.09;5147445;27;20027;-65
2022/05/20 08:08:07;;;;;;;22.38;11.32;;;;;;;19.11;100.00;101777.63;5144700;27;20084;-65
2022/05/20 08:10:35;;;;;;;21.73;10.75;;;;;;;19.40;100.00;101776.25;5140234;27;20106;-65
2022/05/20 08:13:01;;;;;;;22.95;12.50;;;;;;;19.71;100.00;101781.03;5147281;27;20110;-64
2022/05/20 08:15:27;;;;;;;23.48;11.82;;;;;;;19.92;100.00;101776.19;5144995;27;20031;-65
2022/05/20 08:17:53;;;;;;;22.45;11.60;;;;;;;20.14;100.00;101780.22;5146319;27;20035;-63
2022/05/20 08:20:29;;;;;;;22.13;11.30;;;;;;;20.36;100.00;101771.72;5145942;27;20437;-63
2022/05/20 08:22:56;;;;;;;22.67;11.55;;;;;;;20.38;100.00;101777.91;5146693;27;20023;-63
2022/05/20 08:25:24;;;;;;;21.80;11.02;;;;;;;20.48;100.00;101768.75;5145226;27;20359;-63
2022/05/20 08:27:49;;;;;;;22.17;10.95;;;;;;;20.75;100.00;101768.19;5145425;27;20030;-63
2022/05/20 08:30:22;;;;;;;23.25;11.48;;;;;;;20.77;100.00;101771.72;5127846;27;20363;-63
2022/05/20 08:32:47;;;;;;;21.63;10.65;;;;;;;20.94;100.00;101768.63;5145319;27;20016;-63
2022/05/20 08:35:13;;;;;;;22.60;10.85;;;;;;;20.88;100.00;101766.97;5146588;27;20369;-63
2022/05/20 08:37:40;;;;;;;22.45;11.02;;;;;;;20.67;100.00;101758.50;5143864;27;20032;-63
2022/05/20 08:40:12;;;;;;;22.30;11.60;;;;;;;20.57;100.00;101746.16;5140994;27;20107;-65
2022/05/20 08:42:38;;;;;;;22.67;11.57;;;;;;;20.47;100.00;101749.97;5138475;27;20359;-65
2022/05/20 08:45:05;;;;;;;23.92;11.32;;;;;;;20.47;100.00;101731.19;5141663;27;20033;-65
2022/05/20 08:47:43;;;;;;;22.90;12.35;;;;;;;20.45;100.00;101719.59;5143951;27;20035;-66
2022/05/20 08:50:13;;;;;;;22.80;12.35;;;;;;;20.59;100.00;101711.22;5140095;27;20359;-71
2022/05/20 08:52:39;;;;;;;23.35;12.98;;;;;;;20.75;100.00;101701.91;5139371;27;20019;-71
2022/05/20 08:55:05;;;;;;;25.60;13.18;;;;;;;20.87;100.00;101693.53;5138767;27;20428;-64
2022/05/20 08:57:33;;;;;;;24.23;13.00;;;;;;;21.14;100.00;101698.25;5139427;27;20031;-70
2022/05/20 09:00:00;;;;;;;23.33;12.82;;;;;;;21.36;100.00;101688.69;5135905;27;20055;-71
2022/05/20 09:02:25;;;;;;;24.40;13.50;;;;;;;21.49;100.00;101702.66;5140956;27;20465;-69
2022/05/20 09:04:51;;;;;;;23.73;14.05;;;;;;;21.31;100.00;101708.56;5141058;27;20095;-71
2022/05/20 09:07:19;;;;;;;23.45;13.07;;;;;;;21.00;100.00;101706.66;5136299;27;20152;-71
2022/05/20 09:09:51;;;;;;;23.45;13.55;;;;;;;21.21;100.00;101699.84;5136683;27;20019;-70
2022/05/20 09:12:25;;;;;;;23.95;13.48;;;;;;;21.48;100.00;101697.31;5138378;27;20421;-70
2022/05/20 09:17:46;;;;;;;25.85;15.27;;;;;;;21.52;100.00;101694.56;5139718;27;20049;-64
2022/05/20 09:20:17;;;;;;;26.55;15.07;;;;;;;21.72;100.00;101671.56;5137665;27;20055;-68
2022/05/20 09:22:54;;;;;;;24.63;14.93;;;;;;;22.14;100.00;101664.94;5138488;27;20091;-71
2022/05/20 09:25:22;;;;;;;25.45;15.05;;;;;;;22.24;100.00;101651.13;5137560;27;20046;-69
2022/05/20 09:27:51;;;;;;;24.65;14.57;;;;;;;22.27;100.00;101656.41;5136708;27;20105;-70
2022/05/20 09:30:23;;;;;;;25.45;15.00;;;;;;;22.35;100.00;101648.13;5140799;27;20026;-67
2022/05/20 09:33:11;;;;;;;24.98;14.32;;;;;;;22.82;100.00;101628.63;5138993;27;20049;-63
2022/05/20 09:35:37;;;;;;;23.98;14.30;;;;;;;22.84;100.00;101621.34;5136679;27;20442;-70
2022/05/20 09:38:28;;;;;;;25.45;13.70;;;;;;;22.94;100.00;101619.22;5139849;27;20050;-63
2022/05/20 09:40:53;;;;;;;22.80;12.23;;;;;;;22.74;94.54;101622.59;5137102;27;20084;-65
2022/05/20 09:43:31;;;;;;;24.02;12.60;;;;;;;23.03;97.70;101624.28;5137366;27;20019;-64
2022/05/20 09:46:00;;;;;;;25.15;13.13;;;;;;;23.58;94.17;101616.00;5137306;27;20023;-65
2022/05/20 09:48:47;;;;;;;23.05;12.32;;;;;;;24.15;93.02;101605.69;5138264;27;20110;-63
2022/05/20 09:51:18;;;;;;;23.45;12.30;;;;;;;24.71;90.04;101598.00;5135774;27;20027;-63
2022/05/20 09:53:59;;;;;;;23.20;12.15;;;;;;;25.38;82.08;101588.75;5138341;27;20030;-63
2022/05/20 09:56:31;;;;;;;23.03;13.10;;;;;;;26.02;80.10;101577.66;5141216;27;20026;-66
2022/05/20 09:59:34;;;;;;;24.88;13.38;;;;;;;26.39;77.68;101576.69;5144774;27;20763;-64
2022/05/20 10:02:19;;;;;;;24.48;12.98;;;;;;;26.06;73.55;101563.88;5144110;27;20488;-65
2022/05/20 10:04:51;;;;;;;23.23;12.30;;;;;;;26.24;72.89;101550.34;5139952;27;20117;-64
2022/05/20 10:07:19;;;;;;;;;;;;;;;27.22;74.42;101552.50;5145607;27;20035;-63
2022/05/20 10:10:01;;;;;;;24.08;13.65;;;;;;;27.12;66.54;101538.53;5142687;27;20368;-63
2022/05/20 10:12:29;;;;;;;;;;;;;;;27.01;62.71;101523.81;5143737;27;20381;-66
2022/05/20 10:15:18;;;;;;;24.33;13.30;;;;;;;25.76;67.38;101522.91;5143932;27;20281;-65
2022/05/20 10:17:56;;;;;;;24.08;13.77;;;;;;;25.83;67.29;101518.06;5139486;27;20051;-65
2022/05/20 10:20:45;;;;;;;24.05;13.57;;;;;;;26.31;66.24;101515.72;5125146;27;20087;-64
2022/05/20 10:23:30;;;;;;;23.20;12.88;;;;;;;26.66;64.42;101502.16;5138636;27;20041;-63
2022/05/20 10:26:21;;;;;;;25.42;14.45;;;;;;;25.71;66.47;101485.22;5142689;27;20035;-65
2022/05/20 10:34:32;;;;;;;23.73;13.30;;;;;;;24.09;71.66;101481.75;5142750;27;20127;-65
2022/05/20 10:37:25;;;;;;;25.42;14.88;;;;;;;23.83;73.58;101462.06;5144210;27;20035;-64
2022/05/20 10:40:16;;;;;;;25.98;13.77;;;;;;;24.10;73.69;101451.09;5141204;27;20549;-67
2022/05/20 10:43:23;;;;;;;22.70;12.85;;;;;;;23.99;72.65;101445.28;5066549;28;20086;-64
2022/05/20 10:49:17;;;;;;;25.35;13.80;;;;;;;23.55;75.91;101411.09;4990313;28;20037;-67
2022/05/20 10:51:45;;;;;;;24.48;14.05;;;;;;;23.64;75.21;101393.63;4994153;28;20551;-67
2022/05/20 10:54:31;;;;;;;25.52;14.40;;;;;;;23.70;74.39;101384.41;4994576;28;20125;-64
2022/05/20 10:57:30;;;;;;;25.25;14.20;;;;;;;23.72;73.92;101374.41;4994482;28;20089;-63
2022/05/20 11:00:18;;;;;;;26.13;13.90;;;;;;;23.71;75.56;101364.56;4993612;28;20041;-63
2022/05/20 11:03:01;;;;;;;24.88;14.52;;;;;;;23.61;75.42;101351.47;4992116;28;20049;-66
2022/05/20 11:06:00;;;;;;;26.40;15.20;;;;;;;23.57;77.50;101336.34;4994148;28;20039;-64
2022/05/20 11:08:58;;;;;;;26.42;16.08;;;;;;;23.53;76.13;101325.75;4993729;28;20047;-64
2022/05/20 11:11:28;;;;;;;25.58;15.48;;;;;;;23.65;75.09;101314.44;4994493;28;20046;-68
2022/05/20 11:14:08;;;;;;;25.55;16.15;;;;;;;23.68;76.80;101307.09;4993791;28;20034;-65
2022/05/20 11:16:39;;;;;;;25.08;15.70;;;;;;;23.80;74.61;101302.97;4994078;28;20116;-64
2022/05/20 11:19:10;;;;;;;26.52;16.42;;;;;;;23.70;75.89;101300.75;5006228;28;20073;-65
2022/05/20 11:22:11;;;;;;;27.67;17.42;;;;;;;23.89;75.60;101298.16;5094167;27;20069;-66
2022/05/20 11:24:58;;;;;;;30.65;19.13;;;;;;;24.01;75.70;101285.00;5142082;27;20031;-63
2022/05/20 11:27:38;;;;;;;28.77;18.98;;;;;;;23.62;76.19;101287.56;5141862;27;20057;-66
2022/05/20 11:30:35;;;;;;;29.58;19.65;;;;;;;23.34;79.65;101280.66;5145811;27;20084;-65
2022/05/20 11:33:24;;;;;;;30.13;20.70;;;;;;;23.02;82.14;101281.97;5145157;27;20424;-63
2022/05/20 11:36:15;;;;;;;30.90;20.48;;;;;;;22.69;84.07;101279.69;5142188;27;20118;-65
2022/05/20 11:39:13;;;;;;;31.58;21.45;;;;;;;22.17;85.93;101272.66;5144756;27;20019;-63
2022/05/20 11:41:44;;;;;;;31.65;22.30;;;;;;;21.91;90.67;101265.53;5147741;27;20477;-65
2022/05/20 11:44:24;;;;;;;31.87;22.90;;;;;;;21.70;90.96;101261.84;5144797;27;20039;-67
2022/05/20 11:46:59;;;;;;;32.50;23.38;;;;;;;21.50;93.32;101266.06;5142292;27;20172;-65
2022/05/20 11:49:38;;;;;;;31.95;24.08;;;;;;;21.28;98.82;101254.28;5146814;27;20023;-67
2022/05/20 11:52:15;;;;;;;33.58;23.50;;;;;;;21.06;100.00;101234.38;5147019;27;20035;-65